Time;durP1;ratioP1;P1;durP2;ratioP2;P2;SDS_P1;SDS_P2;PMS_P1;PMS_P2;Temp;Humidity;BMP_temperature;BMP_pressure;BME280_temperature;BME280_humidity;BME280_pressure;Samples;Min_cycle;Max_cycle;Signal;HPM_P1;HPM_P2
2021/12/19 09:01:34;;;;;;;15.82;13.77;;;;;;;;;;10493629;28;20115;-81
2021/12/19 09:06:35;;;;;;;19.33;14.88;;;;;;;;;;10452674;28;20491;-81
2021/12/19 09:11:35;;;;;;;17.17;15.60;;;;;;;;;;10464320;28;20029;-83
2021/12/19 09:16:36;;;;;;;10.98;7.25;;;;;;;;;;10462258;28;20522;-81
2021/12/19 09:21:36;;;;;;;14.70;6.15;;;;;;;;;;10450358;28;20119;-81
2021/12/19 09:26:37;;;;;;;11.43;5.70;;;;;;;;;;10468183;28;20033;-81
2021/12/19 09:31:37;;;;;;;7.20;6.13;;;;;;;;;;10476321;28;20515;-81
2021/12/19 09:36:38;;;;;;;7.83;5.30;;;;;;;;;;10477138;28;20029;-82
2021/12/19 09:41:44;;;;;;;8.50;6.07;;;;;;;;;;10448577;28;20477;-81
2021/12/19 09:46:45;;;;;;;9.93;6.43;;;;;;;;;;10488873;28;20485;-81
2021/12/19 09:51:47;;;;;;;8.45;6.80;;;;;;;;;;10491538;28;20048;-82
2021/12/19 09:56:49;;;;;;;7.82;6.65;;;;;;;;;;10466617;28;20029;-80
2021/12/19 10:01:51;;;;;;;7.82;6.40;;;;;;;;;;10489334;28;20367;-80
2021/12/19 10:07:11;;;;;;;9.15;6.78;;;;;;;;;;10509731;28;20115;-81
2021/12/19 10:17:25;;;;;;;8.45;6.70;;;;;;;;;;10483044;28;20385;-79
2021/12/19 10:22:31;;;;;;;9.00;7.10;;;;;;;;;;10502539;28;20024;-81
2021/12/19 10:27:40;;;;;;;7.57;6.53;;;;;;;;;;10478804;28;20028;-83
2021/12/19 10:32:50;;;;;;;29.58;7.43;;;;;;;;;;10489631;28;20037;-80
2021/12/19 10:37:51;;;;;;;17.05;7.68;;;;;;;;;;10492112;28;20041;-79
2021/12/19 10:42:55;;;;;;;20.15;7.70;;;;;;;;;;10470227;28;20044;-80
2021/12/19 10:48:12;;;;;;;23.98;7.28;;;;;;;;;;10479697;28;20047;-82
2021/12/19 10:53:13;;;;;;;14.48;6.85;;;;;;;;;;10442556;28;20047;-85
2021/12/19 10:58:20;;;;;;;11.13;7.13;;;;;;;;;;10461636;28;20049;-81
2021/12/19 11:03:42;;;;;;;13.25;6.72;;;;;;;;;;10472085;28;20074;-81
2021/12/19 11:08:43;;;;;;;8.88;6.93;;;;;;;;;;10471931;28;20103;-82
2021/12/19 11:13:43;;;;;;;12.25;6.72;;;;;;;;;;10467826;28;20139;-81
2021/12/19 11:18:44;;;;;;;15.23;6.60;;;;;;;;;;10444200;28;20419;-83
2021/12/19 11:23:45;;;;;;;13.03;6.47;;;;;;;;;;10480285;28;20438;-81
2021/12/19 11:28:47;;;;;;;14.02;6.68;;;;;;;;;;10481581;28;20764;-81
2021/12/19 11:34:14;;;;;;;18.55;6.95;;;;;;;;;;10442551;28;20025;-83
2021/12/19 11:39:16;;;;;;;13.18;7.38;;;;;;;;;;10477285;28;20028;-82
2021/12/19 11:44:45;;;;;;;9.18;6.85;;;;;;;;;;10460475;28;20447;-82
2021/12/19 11:50:11;;;;;;;10.50;6.75;;;;;;;;;;10442000;28;20435;-81
2021/12/19 11:55:14;;;;;;;11.35;6.18;;;;;;;;;;10458602;28;20060;-83
2021/12/19 12:00:31;;;;;;;7.97;6.45;;;;;;;;;;10477248;28;20084;-82
2021/12/19 12:05:34;;;;;;;9.02;6.45;;;;;;;;;;10471321;28;20032;-82
2021/12/19 12:15:52;;;;;;;10.70;7.00;;;;;;;;;;10468879;28;20044;-83
2021/12/19 12:20:53;;;;;;;11.38;7.15;;;;;;;;;;10480811;28;20031;-83
2021/12/19 12:25:54;;;;;;;9.03;6.70;;;;;;;;;;10487757;28;20127;-85
2021/12/19 12:30:55;;;;;;;9.73;6.35;;;;;;;;;;10456342;28;20423;-85
2021/12/19 12:35:57;;;;;;;11.05;7.18;;;;;;;;;;10439048;28;20041;-85
2021/12/19 12:41:05;;;;;;;9.30;6.90;;;;;;;;;;10439012;28;20466;-86
2021/12/19 12:46:17;;;;;;;9.75;6.82;;;;;;;;;;10471357;28;20036;-84
2021/12/19 12:51:37;;;;;;;7.93;6.55;;;;;;;;;;10479897;28;20028;-85
2021/12/19 12:56:49;;;;;;;7.65;6.47;;;;;;;;;;10462736;28;20451;-84
2021/12/19 13:01:54;;;;;;;8.48;6.40;;;;;;;;;;10449148;28;20124;-84
2021/12/19 13:07:09;;;;;;;9.15;7.18;;;;;;;;;;10456656;28;20037;-84
2021/12/19 13:12:16;;;;;;;8.57;6.38;;;;;;;;;;10466327;28;20393;-84
2021/12/19 13:17:48;;;;;;;7.47;5.63;;;;;;;;;;10479071;28;20021;-84
2021/12/19 13:22:51;;;;;;;10.52;6.45;;;;;;;;;;10465440;28;20037;-84
2021/12/19 13:27:53;;;;;;;6.90;6.20;;;;;;;;;;10437159;28;20025;-85
2021/12/19 13:32:59;;;;;;;7.15;6.05;;;;;;;;;;10451598;28;20040;-84
2021/12/19 13:38:03;;;;;;;7.63;6.32;;;;;;;;;;10497176;28;20028;-85
2021/12/19 13:43:11;;;;;;;11.77;7.20;;;;;;;;;;10496124;28;20028;-82
2021/12/19 13:48:14;;;;;;;12.40;8.43;;;;;;;;;;10504272;28;20086;-82
2021/12/19 13:53:16;;;;;;;9.68;7.75;;;;;;;;;;10497497;28;20032;-81
2021/12/19 13:58:17;;;;;;;10.57;7.88;;;;;;;;;;10496135;28;20371;-82
2021/12/19 14:03:56;;;;;;;11.45;7.53;;;;;;;;;;10501322;28;20078;-82
2021/12/19 14:08:58;;;;;;;;;;;;;;;;;;10463341;28;20025;-82
2021/12/19 14:14:01;;;;;;;11.40;7.55;;;;;;;;;;10468127;28;19912;-83
2021/12/19 14:19:15;;;;;;;9.30;7.15;;;;;;;;;;10462097;28;20021;-83
2021/12/19 14:24:35;;;;;;;11.02;7.32;;;;;;;;;;10462368;28;20037;-82
2021/12/19 14:29:37;;;;;;;10.43;7.25;;;;;;;;;;10462032;28;20039;-82
2021/12/19 14:34:38;;;;;;;9.57;7.70;;;;;;;;;;10461387;28;20027;-81
2021/12/19 14:39:39;;;;;;;9.35;7.30;;;;;;;;;;10499871;28;20036;-81
2021/12/19 14:44:39;;;;;;;8.57;6.93;;;;;;;;;;10502558;28;20071;-81
2021/12/19 14:49:43;;;;;;;8.95;7.22;;;;;;;;;;10460457;28;20370;-80
2021/12/19 14:54:44;;;;;;;10.30;7.15;;;;;;;;;;10432567;28;20057;-81
2021/12/19 14:59:44;;;;;;;13.32;7.53;;;;;;;;;;10378337;28;20391;-81
2021/12/19 15:04:45;;;;;;;13.70;6.45;;;;;;;;;;10378227;28;20038;-81
2021/12/19 15:09:45;;;;;;;8.70;6.73;;;;;;;;;;10376130;28;20037;-81
2021/12/19 15:14:46;;;;;;;9.45;7.25;;;;;;;;;;10378162;28;20470;-81
2021/12/19 15:19:46;;;;;;;9.70;6.30;;;;;;;;;;10376743;28;20529;-81
2021/12/19 15:24:46;;;;;;;7.07;6.23;;;;;;;;;;10376867;28;20463;-82
2021/12/19 15:29:47;;;;;;;7.47;5.97;;;;;;;;;;10376200;28;20041;-82
2021/12/19 15:34:47;;;;;;;10.82;6.97;;;;;;;;;;10376060;28;20420;-82
2021/12/19 15:39:48;;;;;;;10.40;7.15;;;;;;;;;;10375192;28;20037;-82
2021/12/19 15:44:48;;;;;;;8.73;6.83;;;;;;;;;;10376890;28;20084;-82
2021/12/19 15:49:48;;;;;;;8.40;7.00;;;;;;;;;;10376586;28;20846;-82
2021/12/19 15:54:49;;;;;;;9.55;7.20;;;;;;;;;;10359378;28;20447;-83
2021/12/19 15:59:49;;;;;;;9.20;7.38;;;;;;;;;;10376202;28;20097;-80
2021/12/19 16:04:50;;;;;;;8.23;6.97;;;;;;;;;;10376149;28;20033;-80
2021/12/19 16:09:50;;;;;;;7.85;6.55;;;;;;;;;;10374728;28;20459;-81
2021/12/19 16:14:51;;;;;;;7.20;6.15;;;;;;;;;;10375803;28;20129;-82
2021/12/19 16:19:52;;;;;;;8.55;6.13;;;;;;;;;;10375892;28;20064;-81
2021/12/19 16:24:56;;;;;;;10.85;6.20;;;;;;;;;;10373658;28;20029;-81
2021/12/19 16:29:58;;;;;;;8.20;6.40;;;;;;;;;;10374610;28;20037;-81
2021/12/19 16:35:03;;;;;;;10.80;6.57;;;;;;;;;;10373907;28;20038;-81
2021/12/19 16:40:08;;;;;;;7.35;6.32;;;;;;;;;;10375152;28;20032;-82
2021/12/19 16:45:10;;;;;;;7.35;6.20;;;;;;;;;;10375218;28;20462;-81
2021/12/19 16:50:10;;;;;;;7.03;5.88;;;;;;;;;;10373104;28;20080;-81
2021/12/19 16:55:11;;;;;;;6.63;5.30;;;;;;;;;;10373784;28;20538;-81
2021/12/19 17:00:14;;;;;;;9.32;5.95;;;;;;;;;;10374043;28;20495;-82
2021/12/19 17:05:14;;;;;;;7.63;6.03;;;;;;;;;;10372541;28;20061;-81
2021/12/19 17:10:15;;;;;;;7.13;5.72;;;;;;;;;;10372887;28;20045;-81
2021/12/19 17:15:15;;;;;;;9.82;6.63;;;;;;;;;;10373785;28;20069;-82
2021/12/19 17:20:16;;;;;;;9.00;6.37;;;;;;;;;;10376938;28;20057;-82
2021/12/19 17:25:17;;;;;;;7.63;6.32;;;;;;;;;;10376540;28;20473;-82
2021/12/19 17:30:17;;;;;;;9.93;6.83;;;;;;;;;;10381311;28;20125;-81
2021/12/19 17:35:17;;;;;;;11.07;7.93;;;;;;;;;;10381374;28;20964;-80
2021/12/19 17:40:52;;;;;;;11.20;8.30;;;;;;;;;;10381911;28;20026;-81
2021/12/19 17:45:53;;;;;;;14.07;8.55;;;;;;;;;;10379271;28;20569;-80
2021/12/19 17:50:53;;;;;;;10.73;8.27;;;;;;;;;;10381372;28;20069;-80
2021/12/19 17:55:54;;;;;;;14.15;9.30;;;;;;;;;;10380554;28;20065;-81
2021/12/19 18:00:56;;;;;;;15.57;9.30;;;;;;;;;;10395200;28;20057;-81
2021/12/19 18:05:57;;;;;;;12.13;8.77;;;;;;;;;;10379852;28;20026;-81
2021/12/19 18:11:01;;;;;;;12.85;8.18;;;;;;;;;;10379958;28;20049;-80
2021/12/19 18:16:02;;;;;;;13.05;9.68;;;;;;;;;;10379586;28;20032;-80
2021/12/19 18:21:03;;;;;;;12.98;9.50;;;;;;;;;;10379255;28;20080;-80
2021/12/19 18:26:07;;;;;;;12.15;9.25;;;;;;;;;;10380019;28;20030;-83
2021/12/19 18:31:08;;;;;;;12.65;9.48;;;;;;;;;;10378427;28;20065;-85
2021/12/19 18:36:14;;;;;;;11.18;8.20;;;;;;;;;;10379178;28;20065;-85
2021/12/19 18:41:25;;;;;;;12.45;9.07;;;;;;;;;;10388572;28;20029;-83
2021/12/19 18:56:32;;;;;;;35.40;10.18;;;;;;;;;;10377064;28;20127;-82
2021/12/19 19:01:42;;;;;;;25.73;10.43;;;;;;;;;;10375603;28;20126;-80
2021/12/19 19:06:45;;;;;;;26.33;9.40;;;;;;;;;;10377872;28;20379;-80
2021/12/19 19:11:49;;;;;;;20.30;9.60;;;;;;;;;;10358384;28;20388;-80
2021/12/19 19:16:50;;;;;;;12.65;9.20;;;;;;;;;;10369401;28;20487;-80
2021/12/19 19:21:50;;;;;;;17.23;10.27;;;;;;;;;;10377590;28;20084;-80
2021/12/19 19:26:53;;;;;;;15.40;9.40;;;;;;;;;;10376909;28;20038;-80
2021/12/19 19:31:53;;;;;;;14.07;9.07;;;;;;;;;;10392310;28;20424;-80
2021/12/19 19:36:57;;;;;;;11.98;9.20;;;;;;;;;;10375832;28;20034;-80
2021/12/19 19:52:46;;;;;;;15.35;9.13;;;;;;;;;;10333904;28;20053;-80
2021/12/19 19:57:46;;;;;;;12.43;8.75;;;;;;;;;;10373936;28;20053;-80
2021/12/19 20:02:46;;;;;;;15.95;9.35;;;;;;;;;;10374527;28;20057;-80
2021/12/19 20:07:47;;;;;;;10.93;8.57;;;;;;;;;;10373653;28;20041;-80
2021/12/19 20:12:48;;;;;;;13.77;9.20;;;;;;;;;;10390257;28;20030;-79
2021/12/19 20:17:48;;;;;;;14.50;9.45;;;;;;;;;;10375721;28;20034;-80
2021/12/19 20:22:49;;;;;;;15.48;9.57;;;;;;;;;;10482594;23;20075;-77
2021/12/19 20:27:50;;;;;;;13.07;9.15;;;;;;;;;;10423805;28;20466;-76
2021/12/19 20:32:53;;;;;;;11.52;8.75;;;;;;;;;;10457033;28;20463;-76
2021/12/19 20:37:57;;;;;;;13.10;9.45;;;;;;;;;;10455391;28;20037;-76
2021/12/19 20:42:59;;;;;;;13.45;9.60;;;;;;;;;;10415667;28;20032;-75
2021/12/19 20:48:04;;;;;;;12.20;9.15;;;;;;;;;;10417581;28;20045;-75
2021/12/19 20:53:05;;;;;;;14.70;9.55;;;;;;;;;;10432741;28;20033;-75
2021/12/19 20:58:06;;;;;;;12.85;8.57;;;;;;;;;;10431885;28;20033;-74
2021/12/19 21:03:06;;;;;;;21.27;8.90;;;;;;;;;;10446551;28;20033;-74
2021/12/19 21:08:06;;;;;;;13.27;9.37;;;;;;;;;;10451291;28;20486;-74
2021/12/19 21:13:11;;;;;;;12.40;8.40;;;;;;;;;;10456156;28;21002;-74
2021/12/19 21:23:31;;;;;;;12.35;8.50;;;;;;;;;;10455290;28;20475;-74
2021/12/19 21:28:31;;;;;;;13.63;8.70;;;;;;;;;;10455890;28;20104;-77
2021/12/19 21:33:32;;;;;;;9.70;7.70;;;;;;;;;;10455527;28;20037;-76
2021/12/19 21:38:48;;;;;;;11.70;7.90;;;;;;;;;;10455943;28;20037;-75
2021/12/19 21:43:50;;;;;;;11.85;8.60;;;;;;;;;;10456532;28;20033;-76
2021/12/19 21:48:51;;;;;;;9.57;7.60;;;;;;;;;;10455157;28;20348;-76
2021/12/19 21:53:51;;;;;;;9.18;7.20;;;;;;;;;;10454476;28;20071;-77
2021/12/19 21:58:52;;;;;;;16.63;8.50;;;;;;;;;;10455085;28;20078;-76
2021/12/19 22:03:53;;;;;;;10.67;8.30;;;;;;;;;;10407550;28;20581;-75
2021/12/19 22:08:57;;;;;;;9.57;7.30;;;;;;;;;;10450038;28;20454;-77
2021/12/19 22:19:04;;;;;;;9.15;7.60;;;;;;;;;;10449130;28;20029;-77
2021/12/19 22:24:05;;;;;;;11.38;7.45;;;;;;;;;;10461911;28;20049;-75
2021/12/19 22:29:06;;;;;;;15.68;7.80;;;;;;;;;;10461373;28;20115;-76
2021/12/19 22:34:06;;;;;;;9.95;7.20;;;;;;;;;;10461704;28;20120;-75
2021/12/19 22:39:06;;;;;;;18.83;7.68;;;;;;;;;;10460259;28;20033;-76
2021/12/19 22:44:07;;;;;;;11.43;7.47;;;;;;;;;;10461480;28;20370;-76
2021/12/19 22:49:09;;;;;;;13.37;7.97;;;;;;;;;;10460661;28;20083;-76
2021/12/19 22:54:09;;;;;;;8.95;7.28;;;;;;;;;;10442666;28;20480;-75
2021/12/19 22:59:10;;;;;;;11.88;7.18;;;;;;;;;;10460631;28;20417;-76
2021/12/19 23:04:10;;;;;;;14.40;7.78;;;;;;;;;;10459754;28;20051;-77
2021/12/19 23:09:11;;;;;;;11.50;7.50;;;;;;;;;;10457383;28;20029;-76
2021/12/19 23:14:17;;;;;;;10.80;7.25;;;;;;;;;;10459737;28;20032;-76
2021/12/19 23:19:18;;;;;;;10.38;7.35;;;;;;;;;;10441507;28;20036;-76
2021/12/19 23:24:18;;;;;;;10.85;7.20;;;;;;;;;;10444784;28;20045;-76
2021/12/19 23:29:19;;;;;;;13.87;7.43;;;;;;;;;;10458410;28;20036;-77
2021/12/19 23:34:19;;;;;;;13.50;7.38;;;;;;;;;;10457405;28;20506;-77
2021/12/19 23:40:12;;;;;;;11.95;7.65;;;;;;;;;;10456546;28;20033;-76
2021/12/19 23:50:07;;;;;;;11.10;7.65;;;;;;;;;;10457767;28;20068;-75
2021/12/19 23:55:10;;;;;;;11.55;7.65;;;;;;;;;;10458327;28;20440;-76
